<?xml version="1.0" encoding="UTF-8" standalone="no" ?>
<gpx xmlns="http://www.topografix.com/GPX/1/1" xmlns:xsi="http://www.w3.org/2001/XMLSchema-instance" xsi:schemaLocation="http://www.topografix.com/GPX/1/1 http://www.topografix.com/GPX/1/1/gpx.xsd" version="1.1" creator="VisuGPX - https://www.visugpx.com">
  <metadata>
    <name>Petite boucle Chalo St Mars</name>
    <desc><![CDATA[Départ de Chalo St Mars, passage à St Hilaire, Les Boutards et retour à Chalo St Mars]]></desc>
  </metadata>
  <trk>
    <name><![CDATA[2012-07-15 10:16]]></name>
    <desc><![CDATA[<h1>OruxMaps</h1><br /><hr align="center" width="480" style="height: 2px; width: 517px"/><h2>Nom: 2012-07-15 10:16</h2><br /><p>Temps de départ: 07/15/2012 10:16</p><p>Temps d'arrivée: 07/15/2012 12:26</p><p>Distance: 8,4 km (02:10)</p><p>Temps déplacement: 01:44</p><p>Vitesse moyenne: 3,9 km/h</p><p>Vitesse moyenne: 4,8 km/h</p><p>Vitess Max.: 11,9 km/h</p><p>Altitude minimale: 124 m</p><p>Altitude maximale: 202 m</p><p>Vitesse d'élévation: 251,7 m/h</p><p>Vitesse de descente: -206,5 m/h</p><p>Gain Altitude: 228 m</p><p>Perte Altitude: -218 m</p><p>Temps d'élévation: 00:54</p><p>Temps de descente: 01:03</p><hr align="center" width="480" style="height: 2px; width: 517px"/>]]></desc>
    <trkseg>
      <trkpt lat="48.42641" lon="2.06797">
        <ele>125.26396</ele>
        <time>2012-07-15T08:16:34Z</time>
      </trkpt>
      <trkpt lat="48.42644" lon="2.06771">
        <ele>127.089836</ele>
        <time>2012-07-15T08:17:12Z</time>
      </trkpt>
      <trkpt lat="48.42638" lon="2.06744">
        <ele>126.267876</ele>
        <time>2012-07-15T08:17:30Z</time>
      </trkpt>
      <trkpt lat="48.42657" lon="2.0674">
        <ele>129.34085</ele>
        <time>2012-07-15T08:19:19Z</time>
      </trkpt>
      <trkpt lat="48.42664" lon="2.06715">
        <ele>138.89192</ele>
        <time>2012-07-15T08:19:43Z</time>
      </trkpt>
      <trkpt lat="48.42681" lon="2.06701">
        <ele>138.7451</ele>
        <time>2012-07-15T08:19:56Z</time>
      </trkpt>
      <trkpt lat="48.42673" lon="2.06676">
        <ele>143.47678</ele>
        <time>2012-07-15T08:20:10Z</time>
      </trkpt>
      <trkpt lat="48.42683" lon="2.06651">
        <ele>145.00525</ele>
        <time>2012-07-15T08:20:26Z</time>
      </trkpt>
      <trkpt lat="48.42688" lon="2.06625">
        <ele>140.01656</ele>
        <time>2012-07-15T08:21:11Z</time>
      </trkpt>
      <trkpt lat="48.42694" lon="2.06598">
        <ele>139.79391</ele>
        <time>2012-07-15T08:21:21Z</time>
      </trkpt>
      <trkpt lat="48.42711" lon="2.06585">
        <ele>139.89017</ele>
        <time>2012-07-15T08:21:35Z</time>
      </trkpt>
      <trkpt lat="48.42713" lon="2.06557">
        <ele>141.60437</ele>
        <time>2012-07-15T08:22:07Z</time>
      </trkpt>
      <trkpt lat="48.427" lon="2.06579">
        <ele>135.24353</ele>
        <time>2012-07-15T08:22:21Z</time>
      </trkpt>
      <trkpt lat="48.42689" lon="2.06601">
        <ele>136.75516</ele>
        <time>2012-07-15T08:28:25Z</time>
      </trkpt>
      <trkpt lat="48.42678" lon="2.06624">
        <ele>138.23004</ele>
        <time>2012-07-15T08:28:34Z</time>
      </trkpt>
      <trkpt lat="48.4267" lon="2.06649">
        <ele>139.73628</ele>
        <time>2012-07-15T08:28:40Z</time>
      </trkpt>
      <trkpt lat="48.42659" lon="2.06676">
        <ele>139.74196</ele>
        <time>2012-07-15T08:28:48Z</time>
      </trkpt>
      <trkpt lat="48.42655" lon="2.06706">
        <ele>139.84702</ele>
        <time>2012-07-15T08:29:02Z</time>
      </trkpt>
      <trkpt lat="48.42654" lon="2.06734">
        <ele>142.13004</ele>
        <time>2012-07-15T08:29:10Z</time>
      </trkpt>
      <trkpt lat="48.42639" lon="2.06753">
        <ele>140.87529</ele>
        <time>2012-07-15T08:29:15Z</time>
      </trkpt>
      <trkpt lat="48.42634" lon="2.06784">
        <ele>135.45052</ele>
        <time>2012-07-15T08:29:26Z</time>
      </trkpt>
      <trkpt lat="48.42628" lon="2.06811">
        <ele>134.7293</ele>
        <time>2012-07-15T08:29:35Z</time>
      </trkpt>
      <trkpt lat="48.42633" lon="2.06839">
        <ele>132.62608</ele>
        <time>2012-07-15T08:29:41Z</time>
      </trkpt>
      <trkpt lat="48.42645" lon="2.06812">
        <ele>133.90533</ele>
        <time>2012-07-15T08:30:26Z</time>
      </trkpt>
      <trkpt lat="48.42651" lon="2.06786">
        <ele>133.88762</ele>
        <time>2012-07-15T08:30:30Z</time>
      </trkpt>
      <trkpt lat="48.42662" lon="2.06759">
        <ele>135.12236</ele>
        <time>2012-07-15T08:30:36Z</time>
      </trkpt>
      <trkpt lat="48.42662" lon="2.06731">
        <ele>138.6167</ele>
        <time>2012-07-15T08:30:44Z</time>
      </trkpt>
      <trkpt lat="48.42668" lon="2.06704">
        <ele>142.63547</ele>
        <time>2012-07-15T08:30:54Z</time>
      </trkpt>
      <trkpt lat="48.42679" lon="2.0668">
        <ele>146.66103</ele>
        <time>2012-07-15T08:31:05Z</time>
      </trkpt>
      <trkpt lat="48.42687" lon="2.06655">
        <ele>151.52762</ele>
        <time>2012-07-15T08:31:16Z</time>
      </trkpt>
      <trkpt lat="48.42695" lon="2.06628">
        <ele>147.59605</ele>
        <time>2012-07-15T08:31:30Z</time>
      </trkpt>
      <trkpt lat="48.42698" lon="2.066">
        <ele>145.63133</ele>
        <time>2012-07-15T08:31:38Z</time>
      </trkpt>
      <trkpt lat="48.42707" lon="2.06575">
        <ele>149.1239</ele>
        <time>2012-07-15T08:31:49Z</time>
      </trkpt>
      <trkpt lat="48.42709" lon="2.06545">
        <ele>147.54115</ele>
        <time>2012-07-15T08:32:00Z</time>
      </trkpt>
      <trkpt lat="48.42712" lon="2.06516">
        <ele>147.58095</ele>
        <time>2012-07-15T08:32:08Z</time>
      </trkpt>
      <trkpt lat="48.42727" lon="2.06497">
        <ele>152.16725</ele>
        <time>2012-07-15T08:32:17Z</time>
      </trkpt>
      <trkpt lat="48.42731" lon="2.06467">
        <ele>151.96098</ele>
        <time>2012-07-15T08:32:28Z</time>
      </trkpt>
      <trkpt lat="48.42734" lon="2.06438">
        <ele>156.15717</ele>
        <time>2012-07-15T08:32:40Z</time>
      </trkpt>
      <trkpt lat="48.42743" lon="2.06412">
        <ele>162.29091</ele>
        <time>2012-07-15T08:32:55Z</time>
      </trkpt>
      <trkpt lat="48.42752" lon="2.06387">
        <ele>161.42227</ele>
        <time>2012-07-15T08:33:14Z</time>
      </trkpt>
      <trkpt lat="48.42755" lon="2.06359">
        <ele>161.54132</ele>
        <time>2012-07-15T08:33:32Z</time>
      </trkpt>
      <trkpt lat="48.42759" lon="2.06331">
        <ele>160.50797</ele>
        <time>2012-07-15T08:33:53Z</time>
      </trkpt>
      <trkpt lat="48.42766" lon="2.06304">
        <ele>160.9167</ele>
        <time>2012-07-15T08:34:05Z</time>
      </trkpt>
      <trkpt lat="48.42771" lon="2.06275">
        <ele>166.84671</ele>
        <time>2012-07-15T08:34:18Z</time>
      </trkpt>
      <trkpt lat="48.42774" lon="2.06247">
        <ele>167.36751</ele>
        <time>2012-07-15T08:34:42Z</time>
      </trkpt>
      <trkpt lat="48.42768" lon="2.06219">
        <ele>166.43301</ele>
        <time>2012-07-15T08:35:07Z</time>
      </trkpt>
      <trkpt lat="48.42777" lon="2.06194">
        <ele>166.40468</ele>
        <time>2012-07-15T08:35:18Z</time>
      </trkpt>
      <trkpt lat="48.42784" lon="2.06168">
        <ele>166.45497</ele>
        <time>2012-07-15T08:35:38Z</time>
      </trkpt>
      <trkpt lat="48.42789" lon="2.06141">
        <ele>172.01466</ele>
        <time>2012-07-15T08:35:53Z</time>
      </trkpt>
      <trkpt lat="48.42778" lon="2.06117">
        <ele>174.51683</ele>
        <time>2012-07-15T08:36:09Z</time>
      </trkpt>
      <trkpt lat="48.42782" lon="2.0609">
        <ele>176.6112</ele>
        <time>2012-07-15T08:36:26Z</time>
      </trkpt>
      <trkpt lat="48.42788" lon="2.0606">
        <ele>179.97018</ele>
        <time>2012-07-15T08:36:42Z</time>
      </trkpt>
      <trkpt lat="48.42775" lon="2.06039">
        <ele>180.20363</ele>
        <time>2012-07-15T08:36:57Z</time>
      </trkpt>
      <trkpt lat="48.42783" lon="2.06015">
        <ele>175.03284</ele>
        <time>2012-07-15T08:37:14Z</time>
      </trkpt>
      <trkpt lat="48.42786" lon="2.05988">
        <ele>176.82999</ele>
        <time>2012-07-15T08:37:25Z</time>
      </trkpt>
      <trkpt lat="48.4279" lon="2.0596">
        <ele>175.17635</ele>
        <time>2012-07-15T08:37:48Z</time>
      </trkpt>
      <trkpt lat="48.4279" lon="2.05931">
        <ele>174.04996</ele>
        <time>2012-07-15T08:38:08Z</time>
      </trkpt>
      <trkpt lat="48.42795" lon="2.05904">
        <ele>176.53458</ele>
        <time>2012-07-15T08:38:24Z</time>
      </trkpt>
      <trkpt lat="48.42786" lon="2.05877">
        <ele>176.11513</ele>
        <time>2012-07-15T08:38:40Z</time>
      </trkpt>
      <trkpt lat="48.42789" lon="2.0585">
        <ele>178.1698</ele>
        <time>2012-07-15T08:38:55Z</time>
      </trkpt>
      <trkpt lat="48.42791" lon="2.05823">
        <ele>179.33891</ele>
        <time>2012-07-15T08:39:15Z</time>
      </trkpt>
      <trkpt lat="48.42784" lon="2.05796">
        <ele>173.73524</ele>
        <time>2012-07-15T08:39:32Z</time>
      </trkpt>
      <trkpt lat="48.42779" lon="2.05768">
        <ele>175.34389</ele>
        <time>2012-07-15T08:39:50Z</time>
      </trkpt>
      <trkpt lat="48.42793" lon="2.05748">
        <ele>176.29399</ele>
        <time>2012-07-15T08:40:10Z</time>
      </trkpt>
      <trkpt lat="48.42811" lon="2.05751">
        <ele>176.7399</ele>
        <time>2012-07-15T08:40:28Z</time>
      </trkpt>
      <trkpt lat="48.4283" lon="2.05745">
        <ele>177.57225</ele>
        <time>2012-07-15T08:40:38Z</time>
      </trkpt>
      <trkpt lat="48.42849" lon="2.0574">
        <ele>181.86198</ele>
        <time>2012-07-15T08:40:57Z</time>
      </trkpt>
      <trkpt lat="48.42868" lon="2.05732">
        <ele>180.10503</ele>
        <time>2012-07-15T08:41:17Z</time>
      </trkpt>
      <trkpt lat="48.42886" lon="2.0573">
        <ele>179.12073</ele>
        <time>2012-07-15T08:41:31Z</time>
      </trkpt>
      <trkpt lat="48.42904" lon="2.05724">
        <ele>179.829</ele>
        <time>2012-07-15T08:41:53Z</time>
      </trkpt>
      <trkpt lat="48.42922" lon="2.05716">
        <ele>176.63167</ele>
        <time>2012-07-15T08:42:12Z</time>
      </trkpt>
      <trkpt lat="48.4294" lon="2.05713">
        <ele>181.36107</ele>
        <time>2012-07-15T08:42:29Z</time>
      </trkpt>
      <trkpt lat="48.42942" lon="2.0574">
        <ele>184.42612</ele>
        <time>2012-07-15T08:42:51Z</time>
      </trkpt>
      <trkpt lat="48.42949" lon="2.05766">
        <ele>197.59982</ele>
        <time>2012-07-15T08:43:22Z</time>
      </trkpt>
      <trkpt lat="48.42954" lon="2.05792">
        <ele>193.97523</ele>
        <time>2012-07-15T08:43:34Z</time>
      </trkpt>
      <trkpt lat="48.4295" lon="2.05819">
        <ele>196.18729</ele>
        <time>2012-07-15T08:43:45Z</time>
      </trkpt>
      <trkpt lat="48.42951" lon="2.05848">
        <ele>196.91116</ele>
        <time>2012-07-15T08:44:03Z</time>
      </trkpt>
      <trkpt lat="48.42951" lon="2.05876">
        <ele>196.31784</ele>
        <time>2012-07-15T08:44:19Z</time>
      </trkpt>
      <trkpt lat="48.42949" lon="2.05903">
        <ele>196.35515</ele>
        <time>2012-07-15T08:44:34Z</time>
      </trkpt>
      <trkpt lat="48.42951" lon="2.05931">
        <ele>196.40335</ele>
        <time>2012-07-15T08:44:49Z</time>
      </trkpt>
      <trkpt lat="48.42952" lon="2.05961">
        <ele>195.88443</ele>
        <time>2012-07-15T08:45:07Z</time>
      </trkpt>
      <trkpt lat="48.42957" lon="2.05989">
        <ele>197.98306</ele>
        <time>2012-07-15T08:45:23Z</time>
      </trkpt>
      <trkpt lat="48.42957" lon="2.06017">
        <ele>199.37572</ele>
        <time>2012-07-15T08:45:40Z</time>
      </trkpt>
      <trkpt lat="48.42965" lon="2.06044">
        <ele>200.3188</ele>
        <time>2012-07-15T08:45:56Z</time>
      </trkpt>
      <trkpt lat="48.42959" lon="2.06071">
        <ele>201.03783</ele>
        <time>2012-07-15T08:46:10Z</time>
      </trkpt>
      <trkpt lat="48.4296" lon="2.061">
        <ele>200.34297</ele>
        <time>2012-07-15T08:46:24Z</time>
      </trkpt>
      <trkpt lat="48.42955" lon="2.06129">
        <ele>198.9734</ele>
        <time>2012-07-15T08:46:40Z</time>
      </trkpt>
      <trkpt lat="48.4295" lon="2.06157">
        <ele>199.09119</ele>
        <time>2012-07-15T08:46:58Z</time>
      </trkpt>
      <trkpt lat="48.42946" lon="2.06184">
        <ele>194.82996</ele>
        <time>2012-07-15T08:47:15Z</time>
      </trkpt>
      <trkpt lat="48.42948" lon="2.06212">
        <ele>193.4454</ele>
        <time>2012-07-15T08:47:31Z</time>
      </trkpt>
      <trkpt lat="48.42938" lon="2.06234">
        <ele>192.94284</ele>
        <time>2012-07-15T08:47:41Z</time>
      </trkpt>
      <trkpt lat="48.42945" lon="2.06262">
        <ele>193.37727</ele>
        <time>2012-07-15T08:47:53Z</time>
      </trkpt>
      <trkpt lat="48.42943" lon="2.06289">
        <ele>193.93092</ele>
        <time>2012-07-15T08:48:11Z</time>
      </trkpt>
      <trkpt lat="48.42947" lon="2.06317">
        <ele>196.64969</ele>
        <time>2012-07-15T08:48:25Z</time>
      </trkpt>
      <trkpt lat="48.42943" lon="2.06344">
        <ele>195.38089</ele>
        <time>2012-07-15T08:48:39Z</time>
      </trkpt>
      <trkpt lat="48.42939" lon="2.06375">
        <ele>195.40181</ele>
        <time>2012-07-15T08:48:56Z</time>
      </trkpt>
      <trkpt lat="48.42943" lon="2.06402">
        <ele>194.63394</ele>
        <time>2012-07-15T08:49:11Z</time>
      </trkpt>
      <trkpt lat="48.42946" lon="2.0643">
        <ele>195.01158</ele>
        <time>2012-07-15T08:49:27Z</time>
      </trkpt>
      <trkpt lat="48.42952" lon="2.06462">
        <ele>194.9562</ele>
        <time>2012-07-15T08:49:45Z</time>
      </trkpt>
      <trkpt lat="48.42952" lon="2.0649">
        <ele>197.71494</ele>
        <time>2012-07-15T08:50:11Z</time>
      </trkpt>
      <trkpt lat="48.42938" lon="2.0651">
        <ele>193.30302</ele>
        <time>2012-07-15T08:50:21Z</time>
      </trkpt>
      <trkpt lat="48.42944" lon="2.06538">
        <ele>186.60161</ele>
        <time>2012-07-15T08:50:38Z</time>
      </trkpt>
      <trkpt lat="48.42936" lon="2.06562">
        <ele>182.18916</ele>
        <time>2012-07-15T08:50:49Z</time>
      </trkpt>
      <trkpt lat="48.42938" lon="2.06591">
        <ele>182.83899</ele>
        <time>2012-07-15T08:50:59Z</time>
      </trkpt>
      <trkpt lat="48.42935" lon="2.06619">
        <ele>186.8308</ele>
        <time>2012-07-15T08:51:19Z</time>
      </trkpt>
      <trkpt lat="48.4294" lon="2.06646">
        <ele>187.69173</ele>
        <time>2012-07-15T08:51:35Z</time>
      </trkpt>
      <trkpt lat="48.42938" lon="2.06673">
        <ele>184.22363</ele>
        <time>2012-07-15T08:51:50Z</time>
      </trkpt>
      <trkpt lat="48.42941" lon="2.067">
        <ele>182.70554</ele>
        <time>2012-07-15T08:52:07Z</time>
      </trkpt>
      <trkpt lat="48.42947" lon="2.06732">
        <ele>180.22903</ele>
        <time>2012-07-15T08:52:22Z</time>
      </trkpt>
      <trkpt lat="48.42954" lon="2.0676">
        <ele>183.75209</ele>
        <time>2012-07-15T08:52:35Z</time>
      </trkpt>
      <trkpt lat="48.42958" lon="2.06788">
        <ele>184.74452</ele>
        <time>2012-07-15T08:52:51Z</time>
      </trkpt>
      <trkpt lat="48.42967" lon="2.06813">
        <ele>179.30305</ele>
        <time>2012-07-15T08:53:15Z</time>
      </trkpt>
      <trkpt lat="48.42976" lon="2.06839">
        <ele>177.97658</ele>
        <time>2012-07-15T08:53:28Z</time>
      </trkpt>
      <trkpt lat="48.42981" lon="2.06865">
        <ele>183.21754</ele>
        <time>2012-07-15T08:53:44Z</time>
      </trkpt>
      <trkpt lat="48.42987" lon="2.06895">
        <ele>183.92519</ele>
        <time>2012-07-15T08:54:01Z</time>
      </trkpt>
      <trkpt lat="48.42987" lon="2.06923">
        <ele>183.92894</ele>
        <time>2012-07-15T08:54:15Z</time>
      </trkpt>
      <trkpt lat="48.42981" lon="2.06949">
        <ele>178.8469</ele>
        <time>2012-07-15T08:54:32Z</time>
      </trkpt>
      <trkpt lat="48.42989" lon="2.06974">
        <ele>179.34471</ele>
        <time>2012-07-15T08:54:44Z</time>
      </trkpt>
      <trkpt lat="48.42991" lon="2.07002">
        <ele>175.49638</ele>
        <time>2012-07-15T08:55:01Z</time>
      </trkpt>
      <trkpt lat="48.42986" lon="2.0703">
        <ele>175.08699</ele>
        <time>2012-07-15T08:55:15Z</time>
      </trkpt>
      <trkpt lat="48.42991" lon="2.07057">
        <ele>174.18845</ele>
        <time>2012-07-15T08:55:32Z</time>
      </trkpt>
      <trkpt lat="48.43" lon="2.07085">
        <ele>173.02293</ele>
        <time>2012-07-15T08:55:46Z</time>
      </trkpt>
      <trkpt lat="48.43002" lon="2.07112">
        <ele>169.35625</ele>
        <time>2012-07-15T08:56:05Z</time>
      </trkpt>
      <trkpt lat="48.43008" lon="2.07138">
        <ele>165.98642</ele>
        <time>2012-07-15T08:56:21Z</time>
      </trkpt>
      <trkpt lat="48.43009" lon="2.07169">
        <ele>155.30733</ele>
        <time>2012-07-15T08:56:56Z</time>
      </trkpt>
      <trkpt lat="48.43017" lon="2.07193">
        <ele>151.01337</ele>
        <time>2012-07-15T08:57:05Z</time>
      </trkpt>
      <trkpt lat="48.43022" lon="2.07219">
        <ele>145.92024</ele>
        <time>2012-07-15T08:57:19Z</time>
      </trkpt>
      <trkpt lat="48.43035" lon="2.07239">
        <ele>151.14629</ele>
        <time>2012-07-15T08:57:35Z</time>
      </trkpt>
      <trkpt lat="48.43039" lon="2.07266">
        <ele>149.73647</ele>
        <time>2012-07-15T08:57:51Z</time>
      </trkpt>
      <trkpt lat="48.43046" lon="2.07293">
        <ele>147.29314</ele>
        <time>2012-07-15T08:58:05Z</time>
      </trkpt>
      <trkpt lat="48.4306" lon="2.07316">
        <ele>145.23795</ele>
        <time>2012-07-15T08:58:26Z</time>
      </trkpt>
      <trkpt lat="48.43071" lon="2.07339">
        <ele>145.25345</ele>
        <time>2012-07-15T08:58:41Z</time>
      </trkpt>
      <trkpt lat="48.43088" lon="2.07352">
        <ele>143.0055</ele>
        <time>2012-07-15T08:58:59Z</time>
      </trkpt>
      <trkpt lat="48.43103" lon="2.07376">
        <ele>140.90141</ele>
        <time>2012-07-15T08:59:18Z</time>
      </trkpt>
      <trkpt lat="48.4312" lon="2.07385">
        <ele>142.6267</ele>
        <time>2012-07-15T08:59:37Z</time>
      </trkpt>
      <trkpt lat="48.43103" lon="2.07396">
        <ele>147.54181</ele>
        <time>2012-07-15T09:00:11Z</time>
      </trkpt>
      <trkpt lat="48.43119" lon="2.07409">
        <ele>148.95251</ele>
        <time>2012-07-15T09:00:24Z</time>
      </trkpt>
      <trkpt lat="48.43139" lon="2.07407">
        <ele>152.10112</ele>
        <time>2012-07-15T09:00:39Z</time>
      </trkpt>
      <trkpt lat="48.43156" lon="2.07423">
        <ele>153.30547</ele>
        <time>2012-07-15T09:00:57Z</time>
      </trkpt>
      <trkpt lat="48.43176" lon="2.07429">
        <ele>151.33932</ele>
        <time>2012-07-15T09:01:21Z</time>
      </trkpt>
      <trkpt lat="48.43195" lon="2.07434">
        <ele>153.2517</ele>
        <time>2012-07-15T09:01:35Z</time>
      </trkpt>
      <trkpt lat="48.43208" lon="2.07455">
        <ele>146.11162</ele>
        <time>2012-07-15T09:01:51Z</time>
      </trkpt>
      <trkpt lat="48.43226" lon="2.07467">
        <ele>146.60007</ele>
        <time>2012-07-15T09:02:09Z</time>
      </trkpt>
      <trkpt lat="48.43243" lon="2.07476">
        <ele>149.21028</ele>
        <time>2012-07-15T09:02:22Z</time>
      </trkpt>
      <trkpt lat="48.43259" lon="2.07488">
        <ele>146.59679</ele>
        <time>2012-07-15T09:02:40Z</time>
      </trkpt>
      <trkpt lat="48.43277" lon="2.07507">
        <ele>142.18564</ele>
        <time>2012-07-15T09:03:01Z</time>
      </trkpt>
      <trkpt lat="48.43295" lon="2.07508">
        <ele>137.89072</ele>
        <time>2012-07-15T09:03:19Z</time>
      </trkpt>
      <trkpt lat="48.4331" lon="2.07526">
        <ele>139.72282</ele>
        <time>2012-07-15T09:03:37Z</time>
      </trkpt>
      <trkpt lat="48.43324" lon="2.07545">
        <ele>142.94759</ele>
        <time>2012-07-15T09:04:02Z</time>
      </trkpt>
      <trkpt lat="48.4333" lon="2.07571">
        <ele>142.31633</ele>
        <time>2012-07-15T09:04:18Z</time>
      </trkpt>
      <trkpt lat="48.43339" lon="2.07596">
        <ele>146.7458</ele>
        <time>2012-07-15T09:04:28Z</time>
      </trkpt>
      <trkpt lat="48.43348" lon="2.0762">
        <ele>146.20049</ele>
        <time>2012-07-15T09:04:49Z</time>
      </trkpt>
      <trkpt lat="48.43358" lon="2.07646">
        <ele>144.8024</ele>
        <time>2012-07-15T09:05:04Z</time>
      </trkpt>
      <trkpt lat="48.43357" lon="2.07675">
        <ele>141.72853</ele>
        <time>2012-07-15T09:05:25Z</time>
      </trkpt>
      <trkpt lat="48.43373" lon="2.0769">
        <ele>143.66736</ele>
        <time>2012-07-15T09:05:34Z</time>
      </trkpt>
      <trkpt lat="48.43382" lon="2.07719">
        <ele>149.31372</ele>
        <time>2012-07-15T09:05:50Z</time>
      </trkpt>
      <trkpt lat="48.434" lon="2.07727">
        <ele>150.38579</ele>
        <time>2012-07-15T09:06:14Z</time>
      </trkpt>
      <trkpt lat="48.43418" lon="2.07722">
        <ele>150.23666</ele>
        <time>2012-07-15T09:06:36Z</time>
      </trkpt>
      <trkpt lat="48.43437" lon="2.0772">
        <ele>149.15665</ele>
        <time>2012-07-15T09:06:53Z</time>
      </trkpt>
      <trkpt lat="48.43456" lon="2.0772">
        <ele>146.8782</ele>
        <time>2012-07-15T09:07:11Z</time>
      </trkpt>
      <trkpt lat="48.43475" lon="2.07728">
        <ele>145.80237</ele>
        <time>2012-07-15T09:07:25Z</time>
      </trkpt>
      <trkpt lat="48.43489" lon="2.07746">
        <ele>141.90105</ele>
        <time>2012-07-15T09:07:52Z</time>
      </trkpt>
      <trkpt lat="48.43503" lon="2.07762">
        <ele>145.9242</ele>
        <time>2012-07-15T09:08:08Z</time>
      </trkpt>
      <trkpt lat="48.43523" lon="2.07769">
        <ele>150.35498</ele>
        <time>2012-07-15T09:08:57Z</time>
      </trkpt>
      <trkpt lat="48.43537" lon="2.07786">
        <ele>151.79472</ele>
        <time>2012-07-15T09:09:14Z</time>
      </trkpt>
      <trkpt lat="48.43555" lon="2.07792">
        <ele>150.97964</ele>
        <time>2012-07-15T09:09:38Z</time>
      </trkpt>
      <trkpt lat="48.43574" lon="2.07801">
        <ele>152.17587</ele>
        <time>2012-07-15T09:10:04Z</time>
      </trkpt>
      <trkpt lat="48.43592" lon="2.07806">
        <ele>155.18065</ele>
        <time>2012-07-15T09:10:27Z</time>
      </trkpt>
      <trkpt lat="48.4361" lon="2.07807">
        <ele>161.39241</ele>
        <time>2012-07-15T09:10:49Z</time>
      </trkpt>
      <trkpt lat="48.43632" lon="2.07809">
        <ele>165.3089</ele>
        <time>2012-07-15T09:11:18Z</time>
      </trkpt>
      <trkpt lat="48.4365" lon="2.07815">
        <ele>171.46042</ele>
        <time>2012-07-15T09:11:33Z</time>
      </trkpt>
      <trkpt lat="48.4367" lon="2.07824">
        <ele>175.00073</ele>
        <time>2012-07-15T09:11:56Z</time>
      </trkpt>
      <trkpt lat="48.43686" lon="2.07834">
        <ele>174.75264</ele>
        <time>2012-07-15T09:12:20Z</time>
      </trkpt>
      <trkpt lat="48.43712" lon="2.07843">
        <ele>176.18668</ele>
        <time>2012-07-15T09:13:10Z</time>
      </trkpt>
      <trkpt lat="48.43731" lon="2.07849">
        <ele>178.15076</ele>
        <time>2012-07-15T09:13:20Z</time>
      </trkpt>
      <trkpt lat="48.4375" lon="2.07852">
        <ele>183.44153</ele>
        <time>2012-07-15T09:13:48Z</time>
      </trkpt>
      <trkpt lat="48.43769" lon="2.07852">
        <ele>188.38638</ele>
        <time>2012-07-15T09:14:13Z</time>
      </trkpt>
      <trkpt lat="48.43787" lon="2.07839">
        <ele>190.36043</ele>
        <time>2012-07-15T09:14:34Z</time>
      </trkpt>
      <trkpt lat="48.43805" lon="2.07827">
        <ele>189.4549</ele>
        <time>2012-07-15T09:15:03Z</time>
      </trkpt>
      <trkpt lat="48.4382" lon="2.07811">
        <ele>185.14534</ele>
        <time>2012-07-15T09:16:14Z</time>
      </trkpt>
      <trkpt lat="48.43839" lon="2.07799">
        <ele>183.10384</ele>
        <time>2012-07-15T09:16:27Z</time>
      </trkpt>
      <trkpt lat="48.4385" lon="2.07777">
        <ele>188.1208</ele>
        <time>2012-07-15T09:16:44Z</time>
      </trkpt>
      <trkpt lat="48.43865" lon="2.0776">
        <ele>190.85371</ele>
        <time>2012-07-15T09:17:16Z</time>
      </trkpt>
      <trkpt lat="48.43878" lon="2.0774">
        <ele>193.19125</ele>
        <time>2012-07-15T09:17:31Z</time>
      </trkpt>
      <trkpt lat="48.43899" lon="2.07738">
        <ele>192.90158</ele>
        <time>2012-07-15T09:17:54Z</time>
      </trkpt>
      <trkpt lat="48.43919" lon="2.0772">
        <ele>192.13908</ele>
        <time>2012-07-15T09:18:26Z</time>
      </trkpt>
      <trkpt lat="48.43933" lon="2.07701">
        <ele>195.40265</ele>
        <time>2012-07-15T09:18:37Z</time>
      </trkpt>
      <trkpt lat="48.43948" lon="2.07683">
        <ele>197.4777</ele>
        <time>2012-07-15T09:18:59Z</time>
      </trkpt>
      <trkpt lat="48.43965" lon="2.07671">
        <ele>196.71893</ele>
        <time>2012-07-15T09:19:15Z</time>
      </trkpt>
      <trkpt lat="48.43983" lon="2.07658">
        <ele>195.40582</ele>
        <time>2012-07-15T09:19:28Z</time>
      </trkpt>
      <trkpt lat="48.43999" lon="2.07643">
        <ele>191.94081</ele>
        <time>2012-07-15T09:19:42Z</time>
      </trkpt>
      <trkpt lat="48.44017" lon="2.07632">
        <ele>189.48297</ele>
        <time>2012-07-15T09:19:56Z</time>
      </trkpt>
      <trkpt lat="48.44025" lon="2.07606">
        <ele>184.7571</ele>
        <time>2012-07-15T09:20:27Z</time>
      </trkpt>
      <trkpt lat="48.44029" lon="2.07579">
        <ele>188.00488</ele>
        <time>2012-07-15T09:20:43Z</time>
      </trkpt>
      <trkpt lat="48.44022" lon="2.07552">
        <ele>186.15472</ele>
        <time>2012-07-15T09:20:55Z</time>
      </trkpt>
      <trkpt lat="48.44024" lon="2.07525">
        <ele>184.49036</ele>
        <time>2012-07-15T09:21:16Z</time>
      </trkpt>
      <trkpt lat="48.44013" lon="2.07501">
        <ele>187.77577</ele>
        <time>2012-07-15T09:21:23Z</time>
      </trkpt>
      <trkpt lat="48.44026" lon="2.07481">
        <ele>191.59364</ele>
        <time>2012-07-15T09:21:33Z</time>
      </trkpt>
      <trkpt lat="48.44034" lon="2.07453">
        <ele>199.39072</ele>
        <time>2012-07-15T09:21:50Z</time>
      </trkpt>
      <trkpt lat="48.4404" lon="2.07427">
        <ele>201.24394</ele>
        <time>2012-07-15T09:22:05Z</time>
      </trkpt>
      <trkpt lat="48.44033" lon="2.07398">
        <ele>199.33533</ele>
        <time>2012-07-15T09:22:21Z</time>
      </trkpt>
      <trkpt lat="48.4404" lon="2.07373">
        <ele>196.76859</ele>
        <time>2012-07-15T09:23:00Z</time>
      </trkpt>
      <trkpt lat="48.44042" lon="2.07343">
        <ele>196.36674</ele>
        <time>2012-07-15T09:23:13Z</time>
      </trkpt>
      <trkpt lat="48.44059" lon="2.0733">
        <ele>196.76967</ele>
        <time>2012-07-15T09:23:19Z</time>
      </trkpt>
      <trkpt lat="48.44071" lon="2.07305">
        <ele>199.74722</ele>
        <time>2012-07-15T09:23:39Z</time>
      </trkpt>
      <trkpt lat="48.44062" lon="2.0728">
        <ele>201.2124</ele>
        <time>2012-07-15T09:23:51Z</time>
      </trkpt>
      <trkpt lat="48.44068" lon="2.07252">
        <ele>202.16113</ele>
        <time>2012-07-15T09:24:09Z</time>
      </trkpt>
      <trkpt lat="48.44067" lon="2.07222">
        <ele>195.3229</ele>
        <time>2012-07-15T09:24:24Z</time>
      </trkpt>
      <trkpt lat="48.44086" lon="2.07214">
        <ele>186.61478</ele>
        <time>2012-07-15T09:25:06Z</time>
      </trkpt>
      <trkpt lat="48.44099" lon="2.07193">
        <ele>187.286</ele>
        <time>2012-07-15T09:25:13Z</time>
      </trkpt>
      <trkpt lat="48.44114" lon="2.07174">
        <ele>190.27058</ele>
        <time>2012-07-15T09:25:28Z</time>
      </trkpt>
      <trkpt lat="48.44129" lon="2.07157">
        <ele>191.82085</ele>
        <time>2012-07-15T09:25:47Z</time>
      </trkpt>
      <trkpt lat="48.44142" lon="2.07135">
        <ele>191.74583</ele>
        <time>2012-07-15T09:26:02Z</time>
      </trkpt>
      <trkpt lat="48.44147" lon="2.07105">
        <ele>198.0041</ele>
        <time>2012-07-15T09:26:22Z</time>
      </trkpt>
      <trkpt lat="48.44144" lon="2.07075">
        <ele>194.72412</ele>
        <time>2012-07-15T09:26:38Z</time>
      </trkpt>
      <trkpt lat="48.44132" lon="2.0705">
        <ele>182.60129</ele>
        <time>2012-07-15T09:26:57Z</time>
      </trkpt>
      <trkpt lat="48.44122" lon="2.07022">
        <ele>180.89459</ele>
        <time>2012-07-15T09:27:12Z</time>
      </trkpt>
      <trkpt lat="48.44109" lon="2.07001">
        <ele>183.59587</ele>
        <time>2012-07-15T09:27:28Z</time>
      </trkpt>
      <trkpt lat="48.44103" lon="2.06975">
        <ele>188.17786</ele>
        <time>2012-07-15T09:27:41Z</time>
      </trkpt>
      <trkpt lat="48.44084" lon="2.06966">
        <ele>186.46773</ele>
        <time>2012-07-15T09:27:56Z</time>
      </trkpt>
      <trkpt lat="48.44062" lon="2.06955">
        <ele>189.83546</ele>
        <time>2012-07-15T09:28:33Z</time>
      </trkpt>
      <trkpt lat="48.44045" lon="2.06943">
        <ele>189.20238</ele>
        <time>2012-07-15T09:28:39Z</time>
      </trkpt>
      <trkpt lat="48.44034" lon="2.06922">
        <ele>192.69693</ele>
        <time>2012-07-15T09:28:52Z</time>
      </trkpt>
      <trkpt lat="48.44023" lon="2.069">
        <ele>190.04147</ele>
        <time>2012-07-15T09:29:29Z</time>
      </trkpt>
      <trkpt lat="48.44011" lon="2.06876">
        <ele>185.26265</ele>
        <time>2012-07-15T09:29:36Z</time>
      </trkpt>
      <trkpt lat="48.44007" lon="2.06849">
        <ele>188.359</ele>
        <time>2012-07-15T09:30:09Z</time>
      </trkpt>
      <trkpt lat="48.44004" lon="2.0682">
        <ele>184.94981</ele>
        <time>2012-07-15T09:30:59Z</time>
      </trkpt>
      <trkpt lat="48.44007" lon="2.06792">
        <ele>183.019</ele>
        <time>2012-07-15T09:31:07Z</time>
      </trkpt>
      <trkpt lat="48.44009" lon="2.06765">
        <ele>170.66649</ele>
        <time>2012-07-15T09:31:17Z</time>
      </trkpt>
      <trkpt lat="48.44002" lon="2.06739">
        <ele>171.27684</ele>
        <time>2012-07-15T09:31:37Z</time>
      </trkpt>
      <trkpt lat="48.4399" lon="2.06717">
        <ele>169.98514</ele>
        <time>2012-07-15T09:32:04Z</time>
      </trkpt>
      <trkpt lat="48.43978" lon="2.06696">
        <ele>165.61227</ele>
        <time>2012-07-15T09:32:21Z</time>
      </trkpt>
      <trkpt lat="48.43963" lon="2.06678">
        <ele>164.32547</ele>
        <time>2012-07-15T09:32:41Z</time>
      </trkpt>
      <trkpt lat="48.43958" lon="2.0665">
        <ele>164.35736</ele>
        <time>2012-07-15T09:32:58Z</time>
      </trkpt>
      <trkpt lat="48.43954" lon="2.06624">
        <ele>158.58313</ele>
        <time>2012-07-15T09:33:16Z</time>
      </trkpt>
      <trkpt lat="48.43951" lon="2.06595">
        <ele>156.33865</ele>
        <time>2012-07-15T09:33:36Z</time>
      </trkpt>
      <trkpt lat="48.43935" lon="2.06582">
        <ele>156.04803</ele>
        <time>2012-07-15T09:33:48Z</time>
      </trkpt>
      <trkpt lat="48.43946" lon="2.06556">
        <ele>148.60065</ele>
        <time>2012-07-15T09:34:29Z</time>
      </trkpt>
      <trkpt lat="48.43945" lon="2.06528">
        <ele>144.55798</ele>
        <time>2012-07-15T09:34:38Z</time>
      </trkpt>
      <trkpt lat="48.43943" lon="2.065">
        <ele>140.49974</ele>
        <time>2012-07-15T09:34:51Z</time>
      </trkpt>
      <trkpt lat="48.43947" lon="2.06471">
        <ele>144.48735</ele>
        <time>2012-07-15T09:35:05Z</time>
      </trkpt>
      <trkpt lat="48.43946" lon="2.06444">
        <ele>143.0914</ele>
        <time>2012-07-15T09:35:23Z</time>
      </trkpt>
      <trkpt lat="48.43938" lon="2.06419">
        <ele>142.54935</ele>
        <time>2012-07-15T09:35:38Z</time>
      </trkpt>
      <trkpt lat="48.43919" lon="2.0642">
        <ele>145.46251</ele>
        <time>2012-07-15T09:35:52Z</time>
      </trkpt>
      <trkpt lat="48.439" lon="2.0641">
        <ele>140.67532</ele>
        <time>2012-07-15T09:36:09Z</time>
      </trkpt>
      <trkpt lat="48.43882" lon="2.06417">
        <ele>142.15184</ele>
        <time>2012-07-15T09:36:42Z</time>
      </trkpt>
      <trkpt lat="48.43866" lon="2.064">
        <ele>140.40698</ele>
        <time>2012-07-15T09:37:19Z</time>
      </trkpt>
      <trkpt lat="48.43847" lon="2.06397">
        <ele>140.089</ele>
        <time>2012-07-15T09:37:30Z</time>
      </trkpt>
      <trkpt lat="48.4384" lon="2.06372">
        <ele>131.96416</ele>
        <time>2012-07-15T09:38:26Z</time>
      </trkpt>
      <trkpt lat="48.43829" lon="2.06349">
        <ele>126.11763</ele>
        <time>2012-07-15T09:39:24Z</time>
      </trkpt>
      <trkpt lat="48.43813" lon="2.06336">
        <ele>124.41411</ele>
        <time>2012-07-15T09:39:36Z</time>
      </trkpt>
      <trkpt lat="48.43798" lon="2.06353">
        <ele>129.12909</ele>
        <time>2012-07-15T09:39:50Z</time>
      </trkpt>
      <trkpt lat="48.4378" lon="2.06352">
        <ele>129.01118</ele>
        <time>2012-07-15T09:40:04Z</time>
      </trkpt>
      <trkpt lat="48.43762" lon="2.06367">
        <ele>129.7632</ele>
        <time>2012-07-15T09:40:23Z</time>
      </trkpt>
      <trkpt lat="48.43743" lon="2.0637">
        <ele>131.2123</ele>
        <time>2012-07-15T09:40:39Z</time>
      </trkpt>
      <trkpt lat="48.43725" lon="2.06371">
        <ele>135.5443</ele>
        <time>2012-07-15T09:40:50Z</time>
      </trkpt>
      <trkpt lat="48.43707" lon="2.06366">
        <ele>143.72232</ele>
        <time>2012-07-15T09:41:07Z</time>
      </trkpt>
      <trkpt lat="48.43688" lon="2.06366">
        <ele>144.75668</ele>
        <time>2012-07-15T09:41:20Z</time>
      </trkpt>
      <trkpt lat="48.43671" lon="2.06359">
        <ele>136.51242</ele>
        <time>2012-07-15T09:41:45Z</time>
      </trkpt>
      <trkpt lat="48.43652" lon="2.06356">
        <ele>145.53194</ele>
        <time>2012-07-15T09:42:03Z</time>
      </trkpt>
      <trkpt lat="48.43658" lon="2.06333">
        <ele>146.20291</ele>
        <time>2012-07-15T09:42:35Z</time>
      </trkpt>
      <trkpt lat="48.43671" lon="2.0631">
        <ele>148.28717</ele>
        <time>2012-07-15T09:42:50Z</time>
      </trkpt>
      <trkpt lat="48.43683" lon="2.0629">
        <ele>147.16727</ele>
        <time>2012-07-15T09:43:13Z</time>
      </trkpt>
      <trkpt lat="48.43698" lon="2.06269">
        <ele>144.52516</ele>
        <time>2012-07-15T09:43:27Z</time>
      </trkpt>
      <trkpt lat="48.43705" lon="2.06242">
        <ele>146.69518</ele>
        <time>2012-07-15T09:43:55Z</time>
      </trkpt>
      <trkpt lat="48.43719" lon="2.06223">
        <ele>148.59393</ele>
        <time>2012-07-15T09:44:12Z</time>
      </trkpt>
      <trkpt lat="48.43719" lon="2.06196">
        <ele>151.33931</ele>
        <time>2012-07-15T09:44:32Z</time>
      </trkpt>
      <trkpt lat="48.43727" lon="2.06172">
        <ele>152.99034</ele>
        <time>2012-07-15T09:44:55Z</time>
      </trkpt>
      <trkpt lat="48.43739" lon="2.06149">
        <ele>156.18431</ele>
        <time>2012-07-15T09:45:23Z</time>
      </trkpt>
      <trkpt lat="48.43748" lon="2.06123">
        <ele>165.0607</ele>
        <time>2012-07-15T09:45:50Z</time>
      </trkpt>
      <trkpt lat="48.43751" lon="2.06095">
        <ele>164.55066</ele>
        <time>2012-07-15T09:46:42Z</time>
      </trkpt>
      <trkpt lat="48.4376" lon="2.06071">
        <ele>162.56917</ele>
        <time>2012-07-15T09:46:52Z</time>
      </trkpt>
      <trkpt lat="48.43765" lon="2.06045">
        <ele>169.5748</ele>
        <time>2012-07-15T09:47:25Z</time>
      </trkpt>
      <trkpt lat="48.4378" lon="2.06028">
        <ele>174.13734</ele>
        <time>2012-07-15T09:47:43Z</time>
      </trkpt>
      <trkpt lat="48.43782" lon="2.06">
        <ele>174.79285</ele>
        <time>2012-07-15T09:48:02Z</time>
      </trkpt>
      <trkpt lat="48.43785" lon="2.05971">
        <ele>184.32423</ele>
        <time>2012-07-15T09:48:38Z</time>
      </trkpt>
      <trkpt lat="48.43789" lon="2.05944">
        <ele>182.96906</ele>
        <time>2012-07-15T09:49:05Z</time>
      </trkpt>
      <trkpt lat="48.43801" lon="2.05924">
        <ele>182.82329</ele>
        <time>2012-07-15T09:49:28Z</time>
      </trkpt>
      <trkpt lat="48.43794" lon="2.05897">
        <ele>171.15807</ele>
        <time>2012-07-15T09:49:57Z</time>
      </trkpt>
      <trkpt lat="48.43797" lon="2.0587">
        <ele>176.84122</ele>
        <time>2012-07-15T09:50:14Z</time>
      </trkpt>
      <trkpt lat="48.43796" lon="2.05843">
        <ele>178.86476</ele>
        <time>2012-07-15T09:50:37Z</time>
      </trkpt>
      <trkpt lat="48.43792" lon="2.05814">
        <ele>179.35269</ele>
        <time>2012-07-15T09:50:54Z</time>
      </trkpt>
      <trkpt lat="48.43795" lon="2.05787">
        <ele>177.73907</ele>
        <time>2012-07-15T09:51:09Z</time>
      </trkpt>
      <trkpt lat="48.43803" lon="2.0576">
        <ele>177.80722</ele>
        <time>2012-07-15T09:51:31Z</time>
      </trkpt>
      <trkpt lat="48.43812" lon="2.05731">
        <ele>173.3039</ele>
        <time>2012-07-15T09:51:52Z</time>
      </trkpt>
      <trkpt lat="48.43807" lon="2.05702">
        <ele>175.30013</ele>
        <time>2012-07-15T09:52:02Z</time>
      </trkpt>
      <trkpt lat="48.43795" lon="2.0568">
        <ele>173.87741</ele>
        <time>2012-07-15T09:52:23Z</time>
      </trkpt>
      <trkpt lat="48.43792" lon="2.05651">
        <ele>181.44533</ele>
        <time>2012-07-15T09:52:39Z</time>
      </trkpt>
      <trkpt lat="48.43788" lon="2.05619">
        <ele>186.36618</ele>
        <time>2012-07-15T09:54:33Z</time>
      </trkpt>
      <trkpt lat="48.43787" lon="2.05591">
        <ele>186.30965</ele>
        <time>2012-07-15T09:54:39Z</time>
      </trkpt>
      <trkpt lat="48.43782" lon="2.05563">
        <ele>183.02415</ele>
        <time>2012-07-15T09:54:56Z</time>
      </trkpt>
      <trkpt lat="48.43769" lon="2.05543">
        <ele>180.7217</ele>
        <time>2012-07-15T09:55:13Z</time>
      </trkpt>
      <trkpt lat="48.43755" lon="2.05525">
        <ele>184.37169</ele>
        <time>2012-07-15T09:55:31Z</time>
      </trkpt>
      <trkpt lat="48.43741" lon="2.05506">
        <ele>188.86566</ele>
        <time>2012-07-15T09:55:52Z</time>
      </trkpt>
      <trkpt lat="48.43722" lon="2.05506">
        <ele>189.02138</ele>
        <time>2012-07-15T09:56:09Z</time>
      </trkpt>
      <trkpt lat="48.43702" lon="2.055">
        <ele>188.74503</ele>
        <time>2012-07-15T09:56:25Z</time>
      </trkpt>
      <trkpt lat="48.43682" lon="2.05501">
        <ele>189.00406</ele>
        <time>2012-07-15T09:56:38Z</time>
      </trkpt>
      <trkpt lat="48.43663" lon="2.05504">
        <ele>193.52425</ele>
        <time>2012-07-15T09:56:53Z</time>
      </trkpt>
      <trkpt lat="48.43644" lon="2.05505">
        <ele>194.35849</ele>
        <time>2012-07-15T09:57:12Z</time>
      </trkpt>
      <trkpt lat="48.43626" lon="2.05499">
        <ele>195.99037</ele>
        <time>2012-07-15T09:57:27Z</time>
      </trkpt>
      <trkpt lat="48.43607" lon="2.05502">
        <ele>194.13333</ele>
        <time>2012-07-15T09:57:44Z</time>
      </trkpt>
      <trkpt lat="48.43588" lon="2.05497">
        <ele>194.08458</ele>
        <time>2012-07-15T09:57:57Z</time>
      </trkpt>
      <trkpt lat="48.4357" lon="2.05494">
        <ele>191.79555</ele>
        <time>2012-07-15T09:58:14Z</time>
      </trkpt>
      <trkpt lat="48.43551" lon="2.055">
        <ele>193.78683</ele>
        <time>2012-07-15T09:58:33Z</time>
      </trkpt>
      <trkpt lat="48.43533" lon="2.05501">
        <ele>196.6173</ele>
        <time>2012-07-15T09:58:48Z</time>
      </trkpt>
      <trkpt lat="48.43519" lon="2.0552">
        <ele>191.35777</ele>
        <time>2012-07-15T09:59:09Z</time>
      </trkpt>
      <trkpt lat="48.43503" lon="2.05535">
        <ele>187.66832</ele>
        <time>2012-07-15T09:59:25Z</time>
      </trkpt>
      <trkpt lat="48.43488" lon="2.05549">
        <ele>186.12273</ele>
        <time>2012-07-15T09:59:42Z</time>
      </trkpt>
      <trkpt lat="48.43475" lon="2.05574">
        <ele>188.88733</ele>
        <time>2012-07-15T10:00:05Z</time>
      </trkpt>
      <trkpt lat="48.43463" lon="2.05594">
        <ele>185.58777</ele>
        <time>2012-07-15T10:00:19Z</time>
      </trkpt>
      <trkpt lat="48.43451" lon="2.05617">
        <ele>188.41959</ele>
        <time>2012-07-15T10:00:36Z</time>
      </trkpt>
      <trkpt lat="48.43432" lon="2.05626">
        <ele>187.94217</ele>
        <time>2012-07-15T10:00:46Z</time>
      </trkpt>
      <trkpt lat="48.43419" lon="2.05644">
        <ele>187.55865</ele>
        <time>2012-07-15T10:01:04Z</time>
      </trkpt>
      <trkpt lat="48.43406" lon="2.05666">
        <ele>186.44778</ele>
        <time>2012-07-15T10:01:14Z</time>
      </trkpt>
      <trkpt lat="48.43391" lon="2.05683">
        <ele>186.59244</ele>
        <time>2012-07-15T10:01:35Z</time>
      </trkpt>
      <trkpt lat="48.43378" lon="2.05703">
        <ele>187.6569</ele>
        <time>2012-07-15T10:01:53Z</time>
      </trkpt>
      <trkpt lat="48.4336" lon="2.05704">
        <ele>187.4899</ele>
        <time>2012-07-15T10:02:03Z</time>
      </trkpt>
      <trkpt lat="48.43342" lon="2.05702">
        <ele>183.13162</ele>
        <time>2012-07-15T10:02:20Z</time>
      </trkpt>
      <trkpt lat="48.43323" lon="2.05693">
        <ele>177.46033</ele>
        <time>2012-07-15T10:02:33Z</time>
      </trkpt>
      <trkpt lat="48.43305" lon="2.05698">
        <ele>181.09682</ele>
        <time>2012-07-15T10:02:48Z</time>
      </trkpt>
      <trkpt lat="48.43286" lon="2.05692">
        <ele>182.67578</ele>
        <time>2012-07-15T10:03:04Z</time>
      </trkpt>
      <trkpt lat="48.43266" lon="2.0569">
        <ele>183.8883</ele>
        <time>2012-07-15T10:03:19Z</time>
      </trkpt>
      <trkpt lat="48.43249" lon="2.057">
        <ele>184.24629</ele>
        <time>2012-07-15T10:03:37Z</time>
      </trkpt>
      <trkpt lat="48.43231" lon="2.05703">
        <ele>178.67458</ele>
        <time>2012-07-15T10:03:51Z</time>
      </trkpt>
      <trkpt lat="48.43212" lon="2.05702">
        <ele>178.5404</ele>
        <time>2012-07-15T10:04:07Z</time>
      </trkpt>
      <trkpt lat="48.43195" lon="2.05692">
        <ele>182.45654</ele>
        <time>2012-07-15T10:04:25Z</time>
      </trkpt>
      <trkpt lat="48.43176" lon="2.057">
        <ele>187.2492</ele>
        <time>2012-07-15T10:04:40Z</time>
      </trkpt>
      <trkpt lat="48.43158" lon="2.05697">
        <ele>184.30504</ele>
        <time>2012-07-15T10:04:56Z</time>
      </trkpt>
      <trkpt lat="48.43139" lon="2.05701">
        <ele>179.57922</ele>
        <time>2012-07-15T10:05:09Z</time>
      </trkpt>
      <trkpt lat="48.4312" lon="2.05704">
        <ele>177.91603</ele>
        <time>2012-07-15T10:05:25Z</time>
      </trkpt>
      <trkpt lat="48.43102" lon="2.05693">
        <ele>185.07219</ele>
        <time>2012-07-15T10:05:39Z</time>
      </trkpt>
      <trkpt lat="48.43081" lon="2.05697">
        <ele>180.16705</ele>
        <time>2012-07-15T10:05:55Z</time>
      </trkpt>
      <trkpt lat="48.43062" lon="2.05691">
        <ele>181.15349</ele>
        <time>2012-07-15T10:06:11Z</time>
      </trkpt>
      <trkpt lat="48.43044" lon="2.05691">
        <ele>178.182</ele>
        <time>2012-07-15T10:06:26Z</time>
      </trkpt>
      <trkpt lat="48.43025" lon="2.0569">
        <ele>178.60397</ele>
        <time>2012-07-15T10:06:42Z</time>
      </trkpt>
      <trkpt lat="48.43007" lon="2.05692">
        <ele>176.90918</ele>
        <time>2012-07-15T10:06:54Z</time>
      </trkpt>
      <trkpt lat="48.42988" lon="2.05687">
        <ele>182.19666</ele>
        <time>2012-07-15T10:07:14Z</time>
      </trkpt>
      <trkpt lat="48.42969" lon="2.05689">
        <ele>178.20999</ele>
        <time>2012-07-15T10:07:28Z</time>
      </trkpt>
      <trkpt lat="48.42952" lon="2.05699">
        <ele>179.07841</ele>
        <time>2012-07-15T10:07:44Z</time>
      </trkpt>
      <trkpt lat="48.42933" lon="2.05703">
        <ele>184.25838</ele>
        <time>2012-07-15T10:08:06Z</time>
      </trkpt>
      <trkpt lat="48.42944" lon="2.0573">
        <ele>182.49142</ele>
        <time>2012-07-15T10:08:46Z</time>
      </trkpt>
      <trkpt lat="48.42943" lon="2.05758">
        <ele>188.8081</ele>
        <time>2012-07-15T10:09:06Z</time>
      </trkpt>
      <trkpt lat="48.4295" lon="2.05783">
        <ele>183.19019</ele>
        <time>2012-07-15T10:09:20Z</time>
      </trkpt>
      <trkpt lat="48.42949" lon="2.05812">
        <ele>186.15833</ele>
        <time>2012-07-15T10:09:38Z</time>
      </trkpt>
      <trkpt lat="48.42947" lon="2.0584">
        <ele>189.58698</ele>
        <time>2012-07-15T10:09:52Z</time>
      </trkpt>
      <trkpt lat="48.42953" lon="2.05867">
        <ele>188.57024</ele>
        <time>2012-07-15T10:10:08Z</time>
      </trkpt>
      <trkpt lat="48.42946" lon="2.05893">
        <ele>190.10835</ele>
        <time>2012-07-15T10:10:18Z</time>
      </trkpt>
      <trkpt lat="48.42927" lon="2.05892">
        <ele>190.69121</ele>
        <time>2012-07-15T10:10:32Z</time>
      </trkpt>
      <trkpt lat="48.42911" lon="2.05906">
        <ele>189.70789</ele>
        <time>2012-07-15T10:10:48Z</time>
      </trkpt>
      <trkpt lat="48.42893" lon="2.05909">
        <ele>185.27005</ele>
        <time>2012-07-15T10:11:06Z</time>
      </trkpt>
      <trkpt lat="48.42876" lon="2.05921">
        <ele>183.9105</ele>
        <time>2012-07-15T10:11:22Z</time>
      </trkpt>
      <trkpt lat="48.42857" lon="2.05917">
        <ele>183.34045</ele>
        <time>2012-07-15T10:11:33Z</time>
      </trkpt>
      <trkpt lat="48.42841" lon="2.05904">
        <ele>180.01068</ele>
        <time>2012-07-15T10:11:57Z</time>
      </trkpt>
      <trkpt lat="48.42822" lon="2.05904">
        <ele>173.84279</ele>
        <time>2012-07-15T10:12:15Z</time>
      </trkpt>
      <trkpt lat="48.42804" lon="2.05905">
        <ele>173.60379</ele>
        <time>2012-07-15T10:12:26Z</time>
      </trkpt>
      <trkpt lat="48.42786" lon="2.05911">
        <ele>174.00793</ele>
        <time>2012-07-15T10:12:44Z</time>
      </trkpt>
      <trkpt lat="48.4277" lon="2.05934">
        <ele>165.18474</ele>
        <time>2012-07-15T10:13:45Z</time>
      </trkpt>
      <trkpt lat="48.42768" lon="2.05963">
        <ele>162.50917</ele>
        <time>2012-07-15T10:13:51Z</time>
      </trkpt>
      <trkpt lat="48.42767" lon="2.05992">
        <ele>163.72722</ele>
        <time>2012-07-15T10:14:01Z</time>
      </trkpt>
      <trkpt lat="48.42757" lon="2.06017">
        <ele>167.26205</ele>
        <time>2012-07-15T10:14:11Z</time>
      </trkpt>
      <trkpt lat="48.42757" lon="2.06046">
        <ele>160.57886</ele>
        <time>2012-07-15T10:14:29Z</time>
      </trkpt>
      <trkpt lat="48.4276" lon="2.06074">
        <ele>165.58134</ele>
        <time>2012-07-15T10:14:56Z</time>
      </trkpt>
      <trkpt lat="48.42763" lon="2.06101">
        <ele>161.76836</ele>
        <time>2012-07-15T10:15:06Z</time>
      </trkpt>
      <trkpt lat="48.42754" lon="2.06128">
        <ele>161.78276</ele>
        <time>2012-07-15T10:15:24Z</time>
      </trkpt>
      <trkpt lat="48.42756" lon="2.06157">
        <ele>160.6736</ele>
        <time>2012-07-15T10:15:32Z</time>
      </trkpt>
      <trkpt lat="48.42757" lon="2.06186">
        <ele>154.65431</ele>
        <time>2012-07-15T10:15:50Z</time>
      </trkpt>
      <trkpt lat="48.42757" lon="2.06213">
        <ele>154.74438</ele>
        <time>2012-07-15T10:16:07Z</time>
      </trkpt>
      <trkpt lat="48.42753" lon="2.0624">
        <ele>149.63785</ele>
        <time>2012-07-15T10:16:21Z</time>
      </trkpt>
      <trkpt lat="48.42752" lon="2.06268">
        <ele>149.86876</ele>
        <time>2012-07-15T10:16:41Z</time>
      </trkpt>
      <trkpt lat="48.4275" lon="2.06296">
        <ele>154.95946</ele>
        <time>2012-07-15T10:17:00Z</time>
      </trkpt>
      <trkpt lat="48.42745" lon="2.06325">
        <ele>149.79991</ele>
        <time>2012-07-15T10:17:34Z</time>
      </trkpt>
      <trkpt lat="48.42743" lon="2.06354">
        <ele>145.76657</ele>
        <time>2012-07-15T10:17:50Z</time>
      </trkpt>
      <trkpt lat="48.42737" lon="2.06381">
        <ele>146.31306</ele>
        <time>2012-07-15T10:18:07Z</time>
      </trkpt>
      <trkpt lat="48.42731" lon="2.06408">
        <ele>145.09169</ele>
        <time>2012-07-15T10:18:24Z</time>
      </trkpt>
      <trkpt lat="48.42727" lon="2.06436">
        <ele>148.13461</ele>
        <time>2012-07-15T10:18:40Z</time>
      </trkpt>
      <trkpt lat="48.4272" lon="2.06462">
        <ele>147.59131</ele>
        <time>2012-07-15T10:18:59Z</time>
      </trkpt>
      <trkpt lat="48.4272" lon="2.06493">
        <ele>149.74994</ele>
        <time>2012-07-15T10:19:14Z</time>
      </trkpt>
      <trkpt lat="48.42711" lon="2.0652">
        <ele>147.34184</ele>
        <time>2012-07-15T10:19:33Z</time>
      </trkpt>
      <trkpt lat="48.42703" lon="2.06545">
        <ele>141.12059</ele>
        <time>2012-07-15T10:19:56Z</time>
      </trkpt>
      <trkpt lat="48.42692" lon="2.06566">
        <ele>144.10121</ele>
        <time>2012-07-15T10:20:11Z</time>
      </trkpt>
      <trkpt lat="48.42683" lon="2.0659">
        <ele>147.83644</ele>
        <time>2012-07-15T10:20:25Z</time>
      </trkpt>
      <trkpt lat="48.42683" lon="2.06617">
        <ele>140.63226</ele>
        <time>2012-07-15T10:20:46Z</time>
      </trkpt>
      <trkpt lat="48.42675" lon="2.06644">
        <ele>139.05196</ele>
        <time>2012-07-15T10:21:04Z</time>
      </trkpt>
      <trkpt lat="48.42663" lon="2.06667">
        <ele>138.0364</ele>
        <time>2012-07-15T10:21:20Z</time>
      </trkpt>
      <trkpt lat="48.42659" lon="2.06695">
        <ele>136.12741</ele>
        <time>2012-07-15T10:21:41Z</time>
      </trkpt>
      <trkpt lat="48.42669" lon="2.06721">
        <ele>135.34393</ele>
        <time>2012-07-15T10:22:13Z</time>
      </trkpt>
      <trkpt lat="48.42673" lon="2.06747">
        <ele>134.28195</ele>
        <time>2012-07-15T10:22:21Z</time>
      </trkpt>
      <trkpt lat="48.42693" lon="2.06758">
        <ele>134.09976</ele>
        <time>2012-07-15T10:22:27Z</time>
      </trkpt>
      <trkpt lat="48.42709" lon="2.06768">
        <ele>140.89748</ele>
        <time>2012-07-15T10:22:52Z</time>
      </trkpt>
      <trkpt lat="48.42728" lon="2.06769">
        <ele>141.4761</ele>
        <time>2012-07-15T10:23:08Z</time>
      </trkpt>
      <trkpt lat="48.42708" lon="2.06765">
        <ele>134.6758</ele>
        <time>2012-07-15T10:23:51Z</time>
      </trkpt>
      <trkpt lat="48.42689" lon="2.06748">
        <ele>137.99255</ele>
        <time>2012-07-15T10:24:08Z</time>
      </trkpt>
      <trkpt lat="48.42678" lon="2.0677">
        <ele>137.96855</ele>
        <time>2012-07-15T10:24:38Z</time>
      </trkpt>
      <trkpt lat="48.42677" lon="2.06801">
        <ele>134.27744</ele>
        <time>2012-07-15T10:24:54Z</time>
      </trkpt>
      <trkpt lat="48.42657" lon="2.06809">
        <ele>138.00717</ele>
        <time>2012-07-15T10:25:44Z</time>
      </trkpt>
      <trkpt lat="48.42639" lon="2.06797">
        <ele>146.97585</ele>
        <time>2012-07-15T10:26:14Z</time>
      </trkpt>
      <trkpt lat="48.42639" lon="2.06825">
        <ele>139.60454</ele>
        <time>2012-07-15T10:26:29Z</time>
      </trkpt>
      <trkpt lat="48.42631" lon="2.0685">
        <ele>127.30467</ele>
        <time>2012-07-15T10:26:52Z</time>
      </trkpt>
    </trkseg>
  </trk>
</gpx>